createdAt,value
2023-01-30T00:01:25.339Z,9.90
2023-01-30T00:03:52.455Z,10.70
2023-01-30T00:06:22.428Z,10.30
2023-01-30T00:08:49.485Z,10.70
2023-01-30T00:11:22.437Z,10.10
2023-01-30T00:13:50.316Z,9.50
2023-01-30T00:16:17.574Z,11.50
2023-01-30T00:18:46.756Z,9.90
2023-01-30T00:21:14.208Z,10.70
2023-01-30T00:23:42.892Z,10.80
2023-01-30T00:26:10.354Z,10.80
2023-01-30T00:28:45.809Z,9.80
2023-01-30T00:31:12.965Z,10.60
2023-01-30T00:33:39.938Z,10.70
2023-01-30T00:36:07.964Z,10.30
2023-01-30T00:38:40.455Z,11.70
2023-01-30T00:41:07.591Z,10.30
2023-01-30T00:43:59.329Z,9.30
2023-01-30T00:46:51.898Z,11.80
2023-01-30T00:49:24.442Z,11.50
2023-01-30T00:51:51.584Z,11.60
2023-01-30T00:54:18.636Z,10.00
2023-01-30T00:56:45.907Z,10.50
2023-01-30T00:59:12.939Z,10.90
2023-01-30T01:01:40.449Z,10.90
2023-01-30T01:04:14.943Z,11.40
2023-01-30T01:06:43.748Z,9.20
2023-01-30T01:09:16.276Z,10.20
2023-01-30T01:11:43.321Z,12.70
2023-01-30T01:14:10.783Z,11.10
2023-01-30T01:16:38.400Z,12.40
2023-01-30T01:19:05.592Z,10.40
2023-01-30T01:21:37.864Z,10.60
2023-01-30T01:24:05.726Z,11.50
2023-01-30T01:26:34.919Z,9.80
2023-01-30T01:29:02.789Z,11.60
2023-01-30T01:31:31.346Z,10.20
2023-01-30T01:33:59.342Z,9.80
2023-01-30T01:36:51.672Z,10.00
2023-01-30T01:39:20.985Z,12.80
2023-01-30T01:41:50.079Z,11.50
2023-01-30T01:44:17.696Z,10.80
2023-01-30T01:46:48.561Z,11.00
2023-01-30T01:49:20.282Z,13.20
2023-01-30T01:51:55.380Z,10.90
2023-01-30T01:54:39.027Z,12.70
2023-01-30T01:57:08.158Z,10.20
2023-01-30T01:59:38.984Z,10.20
2023-01-30T02:02:09.294Z,9.30
2023-01-30T02:04:57.548Z,8.80
2023-01-30T02:07:24.655Z,9.20
2023-01-30T02:09:52.264Z,10.50
2023-01-30T02:12:20.795Z,10.00
2023-01-30T02:14:48.052Z,10.60
2023-01-30T02:17:15.204Z,9.20
2023-01-30T02:19:48.504Z,10.40
2023-01-30T02:22:31.833Z,10.10
2023-01-30T02:25:20.696Z,11.20
2023-01-30T02:28:10.051Z,10.20
2023-01-30T02:31:33.152Z,9.80
2023-01-30T02:34:26.687Z,10.20
2023-01-30T02:37:24.653Z,8.70
2023-01-30T02:40:17.817Z,9.30
2023-01-30T02:43:19.473Z,8.70
2023-01-30T02:46:17.168Z,11.80
2023-01-30T02:48:49.307Z,9.80
2023-01-30T02:51:19.652Z,9.80
2023-01-30T02:53:47.605Z,10.60
2023-01-30T02:56:14.859Z,10.10
2023-01-30T02:58:49.453Z,11.20
2023-01-30T03:01:36.271Z,9.40
2023-01-30T03:04:27.405Z,15.70
2023-01-30T03:07:31.553Z,13.60
2023-01-30T03:10:53.275Z,17.60
2023-01-30T03:13:27.660Z,10.90
2023-01-30T03:16:08.233Z,10.40
2023-01-30T03:18:36.506Z,16.90
2023-01-30T03:21:08.669Z,18.50
2023-01-30T03:23:36.125Z,15.50
2023-01-30T03:26:11.230Z,17.40
2023-01-30T03:28:43.641Z,16.40
2023-01-30T03:31:10.755Z,15.70
2023-01-30T03:33:43.541Z,20.00
2023-01-30T03:36:10.921Z,15.30
2023-01-30T03:38:38.492Z,18.80
2023-01-30T03:41:10.750Z,15.40
2023-01-30T03:43:38.926Z,17.50
2023-01-30T03:46:07.979Z,15.20
2023-01-30T03:48:35.882Z,14.30
2023-01-30T03:51:02.943Z,16.20
2023-01-30T03:53:30.905Z,14.90
2023-01-30T03:55:59.280Z,15.00
2023-01-30T03:58:29.909Z,14.30
2023-01-30T04:00:57.220Z,14.30
2023-01-30T04:03:25.978Z,14.90
2023-01-30T04:05:55.250Z,16.90
2023-01-30T04:08:22.606Z,16.20
2023-01-30T04:10:54.976Z,15.40
2023-01-30T04:13:23.002Z,14.30
2023-01-30T04:15:56.065Z,12.90
2023-01-30T04:19:00.057Z,18.10
2023-01-30T04:21:33.137Z,22.80
2023-01-30T04:24:02.232Z,19.70
2023-01-30T04:26:29.808Z,19.80
2023-01-30T04:29:03.400Z,18.80
2023-01-30T04:31:30.869Z,22.60
2023-01-30T08:28:15.112Z,40.70
2023-01-30T08:30:42.270Z,39.40
2023-01-30T08:33:09.102Z,41.20
2023-01-30T08:35:36.273Z,44.90
2023-01-30T08:38:06.731Z,50.30
2023-01-30T08:40:33.570Z,46.60
2023-01-30T08:43:00.726Z,44.40
2023-01-30T08:45:28.207Z,37.10
2023-01-30T08:48:03.012Z,41.00
2023-01-30T08:50:31.802Z,36.70
2023-01-30T08:53:06.948Z,36.50
2023-01-30T08:55:34.196Z,38.00
2023-01-30T08:58:04.167Z,34.10
2023-01-30T09:00:32.092Z,29.60
2023-01-30T09:03:05.168Z,33.30
2023-01-30T09:05:33.437Z,27.60
2023-01-30T09:08:00.489Z,25.00
2023-01-30T09:10:27.534Z,27.00
2023-01-30T09:15:43.643Z,29.90
2023-01-30T09:18:10.997Z,28.00
2023-01-30T09:20:39.683Z,37.50
2023-01-30T09:23:07.344Z,43.70
2023-01-30T09:25:35.522Z,44.80
2023-01-30T09:28:03.183Z,27.80
2023-01-30T09:30:30.292Z,29.90
2023-01-30T09:32:59.223Z,24.60
2023-01-30T09:35:26.471Z,34.50
2023-01-30T09:37:54.386Z,25.10
2023-01-30T09:40:27.420Z,30.30
2023-01-30T09:43:04.099Z,43.40
2023-01-30T09:45:44.773Z,21.50
2023-01-30T09:48:35.052Z,21.50
2023-01-30T09:53:57.878Z,22.60
2023-01-30T09:56:31.227Z,16.10
2023-01-30T09:59:25.322Z,25.00
2023-01-30T10:02:31.721Z,15.30
2023-01-30T10:05:16.899Z,28.70
2023-01-30T10:08:14.358Z,23.10
2023-01-30T10:11:09.523Z,15.00
2023-01-30T10:13:56.169Z,38.20
2023-01-30T10:16:29.006Z,16.00
2023-01-30T10:19:33.553Z,31.20
2023-01-30T10:22:11.962Z,17.10
2023-01-30T10:25:00.642Z,16.40
2023-01-30T10:27:28.975Z,25.20
2023-01-30T10:29:57.764Z,34.90
2023-01-30T10:33:04.999Z,22.40
2023-01-30T10:35:37.836Z,30.60
2023-01-30T10:38:12.146Z,34.30
2023-01-30T10:41:00.518Z,19.70
2023-01-30T10:43:40.706Z,27.90
2023-01-30T10:46:10.257Z,29.30
2023-01-30T10:49:20.479Z,15.60
2023-01-30T10:52:00.781Z,17.00
2023-01-30T10:54:35.532Z,28.90
2023-01-30T10:57:20.207Z,24.20
2023-01-30T10:59:51.430Z,39.90
2023-01-30T11:02:53.833Z,43.40
2023-01-30T11:05:22.214Z,22.30
2023-01-30T11:07:49.108Z,38.20
2023-01-30T11:10:18.650Z,22.70
2023-01-30T11:12:47.155Z,13.00
2023-01-30T11:15:14.172Z,27.00
2023-01-30T11:17:41.815Z,17.30
2023-01-30T11:20:16.515Z,20.40
2023-01-30T11:23:03.862Z,43.60
2023-01-30T11:25:31.936Z,17.00
2023-01-30T11:28:03.591Z,15.80
2023-01-30T11:30:33.910Z,25.60
2023-01-30T11:33:16.446Z,32.10
2023-01-30T11:35:44.761Z,19.20
2023-01-30T11:38:20.662Z,13.60
2023-01-30T11:40:47.743Z,16.50
2023-01-30T11:43:14.607Z,17.70
2023-01-30T11:45:47.246Z,31.90
2023-01-30T11:48:33.455Z,38.40
2023-01-30T11:51:05.741Z,32.40
2023-01-30T11:53:38.318Z,12.60
2023-01-30T11:56:35.670Z,37.00
2023-01-30T11:59:05.903Z,22.50
2023-01-30T12:01:35.222Z,19.90
2023-01-30T12:04:08.248Z,22.40
2023-01-30T12:06:37.188Z,35.70
2023-01-30T12:09:04.501Z,35.90
2023-01-30T12:11:41.612Z,22.60
2023-01-30T12:14:16.430Z,23.70
2023-01-30T12:17:08.859Z,15.80
2023-01-30T12:19:51.983Z,14.60
2023-01-30T12:22:45.842Z,16.50
2023-01-30T12:25:25.284Z,16.80
2023-01-30T12:27:59.700Z,18.20
2023-01-30T12:30:41.952Z,16.50
2023-01-30T12:33:12.531Z,17.90
2023-01-30T12:35:49.336Z,13.20
2023-01-30T12:39:01.209Z,18.70
2023-01-30T12:41:47.001Z,23.60
2023-01-30T12:44:43.316Z,20.70
2023-01-30T12:47:23.826Z,17.50
2023-01-30T12:50:21.956Z,16.20
2023-01-30T12:53:07.005Z,16.60
2023-01-30T12:55:43.509Z,23.70
2023-01-30T12:58:29.139Z,18.30
2023-01-30T13:01:00.275Z,17.80
2023-01-30T13:03:33.487Z,19.90
2023-01-30T13:06:10.336Z,22.70
2023-01-30T13:09:06.739Z,18.00
2023-01-30T13:11:57.849Z,20.30
2023-01-30T13:14:46.183Z,18.70
2023-01-30T13:17:38.373Z,15.20
2023-01-30T13:20:17.882Z,17.50
2023-01-30T17:19:59.895Z,27.50
2023-01-30T17:22:29.189Z,27.90
2023-01-30T17:25:01.636Z,29.30
2023-01-30T17:27:30.517Z,33.00
2023-01-30T17:29:59.003Z,28.10
2023-01-30T17:32:27.313Z,26.50
2023-01-30T17:34:56.918Z,29.80
2023-01-30T17:37:25.811Z,23.10
2023-01-30T17:39:59.309Z,31.10
2023-01-30T17:42:27.929Z,25.20
2023-01-30T17:44:56.372Z,28.40
2023-01-30T17:47:24.751Z,26.10
2023-01-30T17:49:56.023Z,23.90
2023-01-30T17:52:24.375Z,29.80
2023-01-30T17:54:53.512Z,26.60
2023-01-30T17:57:25.248Z,22.80
2023-01-30T17:59:55.456Z,20.10
2023-01-30T18:02:23.801Z,21.00
2023-01-30T18:04:52.720Z,19.40
2023-01-30T18:07:22.838Z,22.30
2023-01-30T18:09:51.299Z,22.10
2023-01-30T18:12:19.903Z,21.10
2023-01-30T18:14:48.302Z,20.30
2023-01-30T18:17:17.279Z,22.00
2023-01-30T18:19:45.655Z,20.70
2023-01-30T18:22:14.055Z,22.30
2023-01-30T18:24:42.829Z,22.80
2023-01-30T18:27:12.131Z,27.80
2023-01-30T18:29:40.395Z,22.00
2023-01-30T18:32:09.183Z,26.30
2023-01-30T18:34:38.996Z,23.00
2023-01-30T18:37:07.280Z,24.00
2023-01-30T18:39:37.083Z,22.70
2023-01-30T18:42:08.127Z,21.80
2023-01-30T18:44:36.613Z,19.30
2023-01-30T18:47:05.506Z,21.40
2023-01-30T18:49:35.104Z,18.70
2023-01-30T18:52:03.587Z,15.90
2023-01-30T18:54:37.823Z,16.50
2023-01-30T18:57:06.385Z,17.20
2023-01-30T18:59:34.968Z,20.30
2023-01-30T19:02:03.244Z,18.30
2023-01-30T19:04:33.670Z,19.40
2023-01-30T19:07:01.948Z,16.50
2023-01-30T19:09:31.286Z,18.70
2023-01-30T19:12:18.366Z,15.00
2023-01-30T19:14:46.847Z,17.30
2023-01-30T19:17:16.760Z,17.60
2023-01-30T19:19:46.688Z,14.60
2023-01-30T19:22:16.662Z,15.70
2023-01-30T19:24:45.498Z,16.40
2023-01-30T19:27:14.099Z,21.00
2023-01-30T19:29:45.920Z,20.60
2023-01-30T19:32:14.713Z,21.30
2023-01-30T19:34:43.811Z,19.70
2023-01-30T19:37:12.082Z,19.90
2023-01-30T19:39:40.665Z,19.30
2023-01-30T19:42:09.490Z,19.30
2023-01-30T19:44:38.049Z,19.60
2023-01-30T19:47:09.486Z,19.00
2023-01-30T19:49:37.794Z,17.60
2023-01-30T19:52:06.039Z,15.80
2023-01-30T19:54:36.097Z,17.20
2023-01-30T19:57:05.051Z,14.00
2023-01-30T19:59:34.864Z,14.30
2023-01-30T20:02:03.352Z,12.60
2023-01-30T20:04:34.077Z,14.00
2023-01-30T20:07:02.353Z,14.60
2023-01-30T20:09:30.945Z,11.60
2023-01-30T20:11:59.624Z,11.60
2023-01-30T20:14:28.179Z,12.60
2023-01-30T20:16:56.482Z,13.80
2023-01-30T20:19:24.962Z,12.30
2023-01-30T20:21:59.163Z,11.60
2023-01-30T20:24:28.170Z,11.20
2023-01-30T20:26:56.638Z,83.10
2023-01-30T20:29:25.132Z,15.00
2023-01-30T20:31:54.733Z,9.80
2023-01-30T20:34:28.858Z,30.70
2023-01-30T20:36:57.233Z,20.00
2023-01-30T20:39:26.018Z,11.90
2023-01-30T20:41:59.347Z,11.30
2023-01-30T20:44:27.693Z,22.70
2023-01-30T20:46:56.985Z,14.30
2023-01-30T20:49:25.793Z,13.30
2023-01-30T20:51:54.569Z,11.10
2023-01-30T20:54:23.671Z,16.20
2023-01-30T20:56:53.120Z,12.80
2023-01-30T20:59:27.407Z,11.10
2023-01-30T21:01:55.967Z,19.80
2023-01-30T21:04:24.784Z,21.10
2023-01-30T21:06:53.335Z,14.90
2023-01-30T21:09:24.301Z,13.10
2023-01-30T21:11:53.588Z,14.60
2023-01-30T21:14:22.626Z,14.20
2023-01-30T21:16:51.359Z,12.80
2023-01-30T21:19:20.251Z,14.60
2023-01-30T21:21:58.869Z,12.40
2023-01-30T21:24:28.601Z,16.60
2023-01-30T21:26:57.277Z,13.30
2023-01-30T21:29:26.475Z,14.30
2023-01-30T21:32:00.325Z,16.50
2023-01-30T21:34:29.160Z,13.20
2023-01-30T21:37:20.680Z,14.70
2023-01-30T21:40:12.647Z,14.50
2023-01-30T21:42:59.701Z,14.90
2023-01-30T21:45:33.535Z,15.60
2023-01-30T21:48:02.533Z,13.70
2023-01-30T21:50:31.212Z,12.10
2023-01-30T21:53:00.307Z,13.70
2023-01-30T21:55:29.059Z,10.90
2023-01-30T21:57:59.525Z,14.20
2023-01-30T22:00:28.214Z,9.90
2023-01-30T22:02:56.686Z,12.50
2023-01-30T22:05:25.073Z,11.80
2023-01-30T22:07:54.318Z,10.60
2023-01-30T22:10:22.669Z,10.10
2023-01-30T22:12:51.125Z,12.40
2023-01-30T22:15:29.848Z,9.40
2023-01-30T22:17:58.480Z,9.80
2023-01-30T22:20:27.113Z,8.90
2023-01-30T22:22:57.639Z,9.20
2023-01-30T22:25:26.127Z,9.50
2023-01-30T22:27:55.320Z,9.50
2023-01-30T22:30:23.635Z,10.90
2023-01-30T22:32:54.961Z,9.00
2023-01-30T22:35:23.222Z,10.30
2023-01-30T22:37:51.938Z,11.90
2023-01-30T22:40:20.698Z,10.50
2023-01-30T22:42:50.815Z,9.50
2023-01-30T22:45:19.611Z,10.00
2023-01-30T22:47:48.288Z,12.60
2023-01-30T22:50:17.517Z,11.40
2023-01-30T22:52:45.980Z,10.90
2023-01-30T22:55:14.458Z,10.50
